createdAt,value
2023-03-06T00:00:47.712Z,8.60
2023-03-06T00:03:15.551Z,8.70
2023-03-06T00:05:42.554Z,8.30
2023-03-06T00:08:09.412Z,8.87
2023-03-06T00:10:36.642Z,10.20
2023-03-06T00:13:06.341Z,8.67
2023-03-06T00:15:33.586Z,9.47
2023-03-06T00:18:02.891Z,8.90
2023-03-06T00:20:29.832Z,9.37
2023-03-06T00:22:57.584Z,9.73
2023-03-06T00:25:25.305Z,10.00
2023-03-06T00:27:52.804Z,10.23
2023-03-06T00:30:23.191Z,8.90
2023-03-06T00:32:50.622Z,9.43
2023-03-06T00:35:17.861Z,9.80
2023-03-06T00:37:44.994Z,9.53
2023-03-06T00:40:14.983Z,9.47
2023-03-06T00:42:42.555Z,8.30
2023-03-06T00:45:10.199Z,9.33
2023-03-06T00:47:37.239Z,8.53
2023-03-06T00:50:05.018Z,8.80
2023-03-06T00:52:31.803Z,8.00
2023-03-06T00:54:58.692Z,9.90
2023-03-06T00:57:25.601Z,8.80
2023-03-06T00:59:52.481Z,8.87
2023-03-06T01:02:21.618Z,9.47
2023-03-06T01:04:48.660Z,9.43
2023-03-06T01:07:15.498Z,9.03
2023-03-06T01:09:42.508Z,9.13
2023-03-06T01:12:09.563Z,7.60
2023-03-06T01:14:36.389Z,9.97
2023-03-06T01:17:03.206Z,9.53
2023-03-06T01:19:30.104Z,10.03
2023-03-06T01:21:57.134Z,9.20
2023-03-06T01:24:25.785Z,9.10
2023-03-06T01:26:56.529Z,8.70
2023-03-06T01:29:23.394Z,9.20
2023-03-06T01:31:50.307Z,9.00
2023-03-06T01:34:17.185Z,7.43
2023-03-06T01:36:44.005Z,7.70
2023-03-06T01:39:10.894Z,7.80
2023-03-06T01:41:37.939Z,7.03
2023-03-06T01:44:04.832Z,7.03
2023-03-06T01:46:42.046Z,6.63
2023-03-06T01:49:12.092Z,7.33
2023-03-06T01:51:42.969Z,8.27
2023-03-06T01:54:15.892Z,8.30
2023-03-06T01:56:46.764Z,6.87
2023-03-06T01:59:14.704Z,7.00
2023-03-06T02:01:42.135Z,7.20
2023-03-06T02:04:10.307Z,6.77
2023-03-06T02:06:39.489Z,6.73
2023-03-06T02:09:06.865Z,7.53
2023-03-06T02:11:33.703Z,7.57
2023-03-06T02:14:01.088Z,9.07
2023-03-06T02:16:31.379Z,8.00
2023-03-06T02:19:01.516Z,9.20
2023-03-06T02:21:38.001Z,8.83
2023-03-06T02:24:32.359Z,7.63
2023-03-06T02:27:01.079Z,8.07
2023-03-06T02:29:29.980Z,7.67
2023-03-06T02:32:00.310Z,7.40
2023-03-06T02:34:27.092Z,8.30
2023-03-06T02:37:11.131Z,8.20
2023-03-06T02:39:46.981Z,6.97
2023-03-06T02:42:19.392Z,8.30
2023-03-06T02:44:46.682Z,8.80
2023-03-06T02:47:13.532Z,8.63
2023-03-06T02:49:40.342Z,8.70
2023-03-06T02:52:08.021Z,8.50
2023-03-06T02:54:34.784Z,7.37
2023-03-06T02:57:02.221Z,7.80
2023-03-06T02:59:30.678Z,7.17
2023-03-06T03:01:57.957Z,7.60
2023-03-06T03:04:24.947Z,8.23
2023-03-06T03:06:51.740Z,9.43
2023-03-06T03:09:18.659Z,9.73
2023-03-06T03:11:45.502Z,9.60
2023-03-06T03:14:12.321Z,9.33
2023-03-06T03:16:39.381Z,7.63
2023-03-06T03:19:06.197Z,7.73
2023-03-06T03:21:33.916Z,9.03
2023-03-06T03:24:00.673Z,8.17
2023-03-06T03:26:28.247Z,8.17
2023-03-06T03:29:05.045Z,10.17
2023-03-06T03:31:32.643Z,9.50
2023-03-06T03:34:00.727Z,9.63
2023-03-06T03:36:29.885Z,9.03
2023-03-06T03:38:57.961Z,11.03
2023-03-06T03:41:24.790Z,8.67
2023-03-06T03:43:52.307Z,8.13
2023-03-06T03:46:21.470Z,8.57
2023-03-06T03:48:49.274Z,8.27
2023-03-06T03:51:16.886Z,8.43
2023-03-06T03:53:49.249Z,10.47
2023-03-06T03:56:19.601Z,8.63
2023-03-06T03:58:55.019Z,9.07
2023-03-06T04:01:23.184Z,7.50
2023-03-06T04:03:50.251Z,8.67
2023-03-06T04:06:18.081Z,8.47
2023-03-06T04:08:45.370Z,8.20
2023-03-06T04:11:12.154Z,7.97
2023-03-06T04:13:39.593Z,7.57
2023-03-06T04:16:06.827Z,7.33
2023-03-06T04:18:35.607Z,8.03
2023-03-06T04:21:05.225Z,7.37
2023-03-06T04:23:32.808Z,7.07
2023-03-06T04:25:59.969Z,7.50
2023-03-06T04:28:27.637Z,7.30
2023-03-06T04:30:54.419Z,7.47
2023-03-06T04:33:21.481Z,7.80
2023-03-06T04:35:48.762Z,8.20
2023-03-06T04:38:21.010Z,8.50
2023-03-06T04:40:49.611Z,8.67
2023-03-06T04:43:16.757Z,8.33
2023-03-06T04:45:43.645Z,8.60
2023-03-06T04:48:14.209Z,8.30
2023-03-06T04:50:41.104Z,8.40
2023-03-06T04:53:08.661Z,9.27
2023-03-06T04:55:35.575Z,7.80
2023-03-06T04:58:02.462Z,8.90
2023-03-06T05:00:31.512Z,10.10
2023-03-06T05:03:00.131Z,10.60
2023-03-06T05:05:27.600Z,8.67
2023-03-06T05:07:54.667Z,8.90
2023-03-06T05:10:22.493Z,10.20
2023-03-06T05:12:49.324Z,10.10
2023-03-06T05:15:16.363Z,10.40
2023-03-06T05:17:43.478Z,10.70
2023-03-06T05:20:12.006Z,11.70
2023-03-06T05:22:38.860Z,10.87
2023-03-06T05:25:06.494Z,10.33
2023-03-06T05:27:33.895Z,10.33
2023-03-06T05:30:00.967Z,9.53
2023-03-06T05:32:27.890Z,9.90
2023-03-06T05:34:54.810Z,9.67
2023-03-06T05:37:23.084Z,9.50
2023-03-06T05:39:50.715Z,10.03
2023-03-06T05:42:18.449Z,10.27
2023-03-06T05:44:45.830Z,10.07
2023-03-06T05:47:12.876Z,10.00
2023-03-06T05:49:39.756Z,10.07
2023-03-06T05:52:07.536Z,10.50
2023-03-06T05:54:35.895Z,9.47
2023-03-06T05:57:04.362Z,9.60
2023-03-06T05:59:32.924Z,10.80
2023-03-06T06:02:00.720Z,11.43
2023-03-06T06:04:28.276Z,10.70
2023-03-06T06:06:59.909Z,10.37
2023-03-06T06:09:27.769Z,10.40
2023-03-06T06:12:00.164Z,9.93
2023-03-06T06:14:27.421Z,11.13
2023-03-06T06:16:54.664Z,10.73
2023-03-06T06:19:22.754Z,11.30
2023-03-06T06:21:52.236Z,11.33
2023-03-06T06:24:22.634Z,9.57
2023-03-06T06:26:55.108Z,11.53
2023-03-06T06:29:22.884Z,11.20
2023-03-06T06:31:50.575Z,11.67
2023-03-06T06:34:18.016Z,10.30
2023-03-06T06:36:44.827Z,11.17
2023-03-06T06:39:15.016Z,10.70
2023-03-06T06:41:59.414Z,10.63
2023-03-06T06:44:28.607Z,9.97
2023-03-06T06:49:42.266Z,10.07
2023-03-06T06:52:10.369Z,9.83
2023-03-06T06:54:37.487Z,9.83
2023-03-06T06:57:04.572Z,10.37
2023-03-06T06:59:31.371Z,10.73
2023-03-06T07:01:58.212Z,10.50
2023-03-06T07:04:25.012Z,9.77
2023-03-06T07:06:54.749Z,10.07
2023-03-06T07:09:22.292Z,10.97
2023-03-06T07:11:49.322Z,10.03
2023-03-06T07:14:16.219Z,12.20
2023-03-06T07:16:43.035Z,10.73
2023-03-06T07:19:09.869Z,10.40
2023-03-06T07:21:36.661Z,11.10
2023-03-06T07:24:03.717Z,10.50
2023-03-06T07:26:32.703Z,11.23
2023-03-06T07:29:02.063Z,11.03
2023-03-06T07:31:29.088Z,11.20
2023-03-06T07:33:55.984Z,10.67
2023-03-06T07:36:24.157Z,11.40
2023-03-06T07:38:51.051Z,10.73
2023-03-06T07:41:20.537Z,10.50
2023-03-06T07:43:49.751Z,10.93
2023-03-06T07:46:17.404Z,10.60
2023-03-06T07:48:44.631Z,10.87
2023-03-06T07:51:16.901Z,11.03
2023-03-06T07:53:44.190Z,11.10
2023-03-06T07:56:11.938Z,11.33
2023-03-06T07:58:40.884Z,10.43
2023-03-06T08:01:10.389Z,10.37
2023-03-06T08:03:37.548Z,11.50
2023-03-06T08:06:19.981Z,10.33
2023-03-06T08:08:48.613Z,9.77
2023-03-06T08:11:17.344Z,10.67
2023-03-06T08:13:44.794Z,9.93
2023-03-06T08:16:11.922Z,10.73
2023-03-06T08:18:39.949Z,10.33
2023-03-06T08:21:18.850Z,9.97
2023-03-06T08:23:46.404Z,9.63
2023-03-06T08:26:24.824Z,10.30
2023-03-06T08:28:53.619Z,10.30
2023-03-06T08:31:23.159Z,10.83
2023-03-06T08:33:50.408Z,14.33
2023-03-06T08:36:17.213Z,10.93
2023-03-06T08:38:44.023Z,10.40
2023-03-06T08:41:10.889Z,11.23
2023-03-06T08:43:37.780Z,9.80
2023-03-06T08:46:04.825Z,10.13
2023-03-06T08:48:31.863Z,10.83
2023-03-06T08:50:58.721Z,10.13
2023-03-06T08:53:40.362Z,10.13
2023-03-06T08:56:14.973Z,10.37
2023-03-06T08:58:41.764Z,9.77
2023-03-06T09:01:20.969Z,9.17
2023-03-06T09:03:48.343Z,8.40
2023-03-06T09:06:15.430Z,9.37
2023-03-06T09:08:44.436Z,8.80
2023-03-06T09:11:12.784Z,9.70
2023-03-06T09:13:39.810Z,9.67
2023-03-06T09:16:07.239Z,9.47
2023-03-06T09:18:34.228Z,9.30
2023-03-06T09:21:01.140Z,9.63
2023-03-06T09:23:27.919Z,9.50
2023-03-06T09:25:56.792Z,9.33
2023-03-06T09:28:24.795Z,10.20
2023-03-06T09:30:52.446Z,9.43
2023-03-06T09:33:20.173Z,10.10
2023-03-06T09:35:54.894Z,8.47
2023-03-06T09:38:27.203Z,8.70
2023-03-06T09:41:15.666Z,8.27
2023-03-06T09:43:48.343Z,7.20
2023-03-06T09:46:22.172Z,7.40
2023-03-06T09:49:10.590Z,7.97
2023-03-06T09:52:02.361Z,7.93
2023-03-06T09:54:42.686Z,6.90
2023-03-06T09:57:33.031Z,7.03
2023-03-06T10:00:07.256Z,7.60
2023-03-06T10:02:47.922Z,8.10
2023-03-06T10:05:28.756Z,7.63
2023-03-06T10:08:03.189Z,7.10
2023-03-06T10:10:58.626Z,8.10
2023-03-06T10:13:45.868Z,6.90
2023-03-06T10:16:32.042Z,7.00
2023-03-06T10:19:05.214Z,7.50
2023-03-06T10:21:38.283Z,7.83
2023-03-06T10:24:28.246Z,7.00
2023-03-06T10:27:19.189Z,7.57
2023-03-06T10:30:02.667Z,6.63
2023-03-06T10:32:58.717Z,6.50
2023-03-06T10:35:48.284Z,7.40
2023-03-06T10:38:37.472Z,7.87
2023-03-06T10:41:11.827Z,7.20
2023-03-06T10:43:42.793Z,7.57
2023-03-06T10:46:12.381Z,7.50
2023-03-06T10:48:42.268Z,8.10
2023-03-06T10:51:19.799Z,8.10
2023-03-06T10:53:54.084Z,6.60
2023-03-06T10:56:36.252Z,7.80
2023-03-06T10:59:09.042Z,7.27
2023-03-06T11:01:36.041Z,8.03
2023-03-06T11:04:28.661Z,7.57
2023-03-06T11:07:12.326Z,7.40
2023-03-06T11:09:39.207Z,7.83
2023-03-06T11:12:25.757Z,6.87
2023-03-06T11:15:21.152Z,8.40
2023-03-06T11:17:51.545Z,7.37
2023-03-06T11:20:24.164Z,7.17
2023-03-06T11:23:03.102Z,8.23
2023-03-06T11:25:39.114Z,8.10
2023-03-06T11:28:23.902Z,6.90
2023-03-06T11:30:57.845Z,6.80
2023-03-06T11:33:29.792Z,7.07
2023-03-06T11:36:19.276Z,18.10
2023-03-06T11:38:51.764Z,11.60
2023-03-06T11:41:24.975Z,7.70
2023-03-06T11:44:07.951Z,7.30
2023-03-06T11:46:41.658Z,6.93
2023-03-06T11:49:26.212Z,7.43
2023-03-06T11:51:59.429Z,6.90
2023-03-06T11:54:26.675Z,7.93
2023-03-06T11:57:04.994Z,6.97
2023-03-06T11:59:50.853Z,7.93
2023-03-06T12:02:43.804Z,6.70
2023-03-06T12:05:28.386Z,7.43
2023-03-06T12:08:33.422Z,6.63
2023-03-06T12:14:04.431Z,8.33
2023-03-06T12:16:43.092Z,8.23
2023-03-06T12:19:26.470Z,9.37
2023-03-06T12:22:24.273Z,7.20
2023-03-06T12:25:05.970Z,6.90
2023-03-06T12:27:49.900Z,7.70
2023-03-06T12:30:38.738Z,7.07
2023-03-06T12:33:22.852Z,7.23
2023-03-06T12:36:17.494Z,6.70
2023-03-06T12:39:09.738Z,6.77
2023-03-06T12:41:57.384Z,6.70
2023-03-06T12:44:48.207Z,6.93
2023-03-06T12:47:20.144Z,6.33
2023-03-06T12:50:01.372Z,7.50
2023-03-06T12:52:31.244Z,7.60
2023-03-06T12:55:00.943Z,7.87
2023-03-06T12:57:27.736Z,6.27
2023-03-06T12:59:55.225Z,6.30
2023-03-06T13:02:54.786Z,8.40
2023-03-06T13:06:00.045Z,6.70
2023-03-06T13:08:35.052Z,6.97
2023-03-06T13:11:21.138Z,6.37
2023-03-06T13:13:48.848Z,6.23
2023-03-06T13:16:18.662Z,6.23
2023-03-06T13:18:54.266Z,5.70
2023-03-06T13:21:56.268Z,5.70
2023-03-06T13:24:29.492Z,5.60
2023-03-06T13:27:19.118Z,5.67
2023-03-06T13:29:51.486Z,6.10
2023-03-06T13:32:27.980Z,6.43
2023-03-06T13:34:55.215Z,6.30
2023-03-06T13:37:24.839Z,6.00
2023-03-06T13:40:01.490Z,5.43
2023-03-06T13:42:30.998Z,5.83
2023-03-06T13:45:06.520Z,5.67
2023-03-06T13:50:47.388Z,5.20
2023-03-06T13:53:48.976Z,6.10
2023-03-06T13:56:40.049Z,5.87
2023-03-06T13:59:34.355Z,5.73
2023-03-06T14:02:19.731Z,6.60
2023-03-06T14:04:54.166Z,6.27
2023-03-06T14:07:24.840Z,6.13
2023-03-06T14:10:13.073Z,6.77
2023-03-06T14:12:48.641Z,6.23
2023-03-06T14:15:25.557Z,6.93
2023-03-06T14:18:05.898Z,6.23
2023-03-06T14:21:04.548Z,5.83
2023-03-06T14:23:34.340Z,6.07
2023-03-06T14:26:10.512Z,5.03
2023-03-06T14:28:37.451Z,5.60
2023-03-06T14:31:06.145Z,5.77
2023-03-06T14:33:49.480Z,5.50
2023-03-06T14:36:19.956Z,5.63
2023-03-06T14:38:53.789Z,5.30
2023-03-06T14:41:30.152Z,6.33
2023-03-06T14:44:19.089Z,5.53
2023-03-06T14:46:48.269Z,5.87
2023-03-06T14:49:17.135Z,5.73
2023-03-06T14:51:49.878Z,8.10
2023-03-06T14:54:29.023Z,7.37
2023-03-06T14:57:05.972Z,8.20
2023-03-06T14:59:43.866Z,7.23
2023-03-06T15:02:18.472Z,6.97
2023-03-06T15:04:49.119Z,6.67
2023-03-06T15:07:26.863Z,6.67
2023-03-06T15:09:54.730Z,6.53
2023-03-06T15:12:22.595Z,7.53
2023-03-06T15:14:59.973Z,6.93
2023-03-06T15:17:32.466Z,6.57
2023-03-06T15:20:00.830Z,7.30
2023-03-06T15:22:37.886Z,6.93
2023-03-06T15:25:32.377Z,9.10
2023-03-06T15:28:00.512Z,8.00
2023-03-06T15:30:31.112Z,7.37
2023-03-06T15:33:10.398Z,7.57
2023-03-06T15:35:38.294Z,7.17
2023-03-06T15:38:42.142Z,6.90
2023-03-06T15:41:24.034Z,6.33
2023-03-06T15:43:51.343Z,6.93
2023-03-06T15:46:18.076Z,7.23
2023-03-06T15:48:52.636Z,7.57
2023-03-06T15:51:19.417Z,6.80
2023-03-06T15:53:46.238Z,7.20
2023-03-06T15:56:13.806Z,6.80
2023-03-06T15:58:42.506Z,6.77
2023-03-06T16:01:16.062Z,5.73
2023-03-06T16:03:43.451Z,6.43
2023-03-06T16:06:18.719Z,6.43
2023-03-06T16:08:45.772Z,6.43
2023-03-06T16:11:24.585Z,6.93
2023-03-06T16:13:54.156Z,7.60
2023-03-06T16:16:30.225Z,6.60
2023-03-06T16:18:56.994Z,6.63
2023-03-06T16:21:23.752Z,7.53
2023-03-06T16:23:50.562Z,6.70
2023-03-06T16:26:34.828Z,6.40
2023-03-06T16:29:02.019Z,5.70
2023-03-06T16:31:28.859Z,6.30
2023-03-06T16:33:56.209Z,6.47
2023-03-06T16:36:25.121Z,5.87
2023-03-06T16:38:52.349Z,6.20
2023-03-06T16:41:20.295Z,6.20
2023-03-06T16:43:48.204Z,6.30
2023-03-06T16:46:21.014Z,8.20
2023-03-06T16:48:48.756Z,7.70
2023-03-06T16:51:18.020Z,9.97
2023-03-06T16:53:45.890Z,7.93
2023-03-06T16:56:14.992Z,7.00
2023-03-06T16:58:42.543Z,5.90
2023-03-06T17:01:10.400Z,5.73
2023-03-06T17:03:37.363Z,5.63
2023-03-06T17:06:04.619Z,6.30
2023-03-06T17:08:31.413Z,5.73
2023-03-06T17:10:58.136Z,5.73
2023-03-06T17:13:24.847Z,5.40
2023-03-06T17:15:59.370Z,6.27
2023-03-06T17:18:27.415Z,6.57
2023-03-06T17:20:54.861Z,6.63
2023-03-06T17:23:25.934Z,7.10
2023-03-06T17:26:01.874Z,7.17
2023-03-06T17:28:28.664Z,8.70
2023-03-06T17:30:55.422Z,10.57
2023-03-06T17:33:22.196Z,9.40
2023-03-06T17:35:49.150Z,6.90
2023-03-06T17:38:15.878Z,6.47
2023-03-06T17:40:42.688Z,6.57
2023-03-06T17:43:09.462Z,6.50
2023-03-06T17:45:37.040Z,6.13
2023-03-06T17:48:03.920Z,6.10
2023-03-06T17:50:30.658Z,7.07
2023-03-06T17:52:57.402Z,6.97
2023-03-06T17:55:24.107Z,6.80
2023-03-06T17:57:52.216Z,7.83
2023-03-06T18:00:19.799Z,7.67
2023-03-06T18:02:46.852Z,7.20
2023-03-06T18:05:13.689Z,7.57
2023-03-06T18:07:40.669Z,6.90
2023-03-06T18:10:07.713Z,6.40
2023-03-06T18:12:34.474Z,6.83
2023-03-06T18:15:01.217Z,7.27
2023-03-06T18:17:28.195Z,7.17
2023-03-06T18:19:56.748Z,6.83
2023-03-06T18:22:23.598Z,7.43
2023-03-06T18:24:50.608Z,7.60
2023-03-06T18:27:17.404Z,7.40
2023-03-06T18:29:44.192Z,6.43
2023-03-06T18:32:11.063Z,6.27
2023-03-06T18:34:38.083Z,7.30
2023-03-06T18:37:04.898Z,7.03
2023-03-06T18:39:31.666Z,6.50
2023-03-06T18:41:58.464Z,8.80
2023-03-06T18:44:25.192Z,7.70
2023-03-06T18:46:51.884Z,7.87
2023-03-06T18:49:18.966Z,6.37
2023-03-06T18:51:48.063Z,7.07
2023-03-06T18:54:14.820Z,6.83
2023-03-06T18:56:44.099Z,7.63
2023-03-06T18:59:16.109Z,6.97
2023-03-06T19:01:45.662Z,7.47
2023-03-06T19:04:12.479Z,7.23
2023-03-06T19:06:40.463Z,6.87
2023-03-06T19:09:07.726Z,7.70
2023-03-06T19:11:34.723Z,8.03
2023-03-06T19:14:01.812Z,7.13
2023-03-06T19:16:30.417Z,7.87
2023-03-06T19:18:57.754Z,7.67
2023-03-06T19:21:26.335Z,7.47
2023-03-06T19:23:53.688Z,6.80
2023-03-06T19:26:21.071Z,6.80
2023-03-06T19:28:48.582Z,7.10
2023-03-06T19:31:20.490Z,7.43
2023-03-06T19:33:49.093Z,7.77
2023-03-06T19:36:17.416Z,7.17
2023-03-06T19:38:44.226Z,8.27
2023-03-06T19:41:13.539Z,6.80
2023-03-06T19:43:41.420Z,7.20
2023-03-06T19:46:15.562Z,6.70
2023-03-06T19:48:42.581Z,6.97
2023-03-06T19:51:10.185Z,6.60
2023-03-06T19:53:37.729Z,6.20
2023-03-06T19:56:10.421Z,7.03
2023-03-06T19:58:37.375Z,7.03
2023-03-06T20:01:13.536Z,7.20
2023-03-06T20:03:41.124Z,6.87
2023-03-06T20:06:14.201Z,7.37
2023-03-06T20:08:44.586Z,6.87
2023-03-06T20:11:23.883Z,6.50
2023-03-06T20:13:50.927Z,7.33
2023-03-06T20:16:18.207Z,7.80
2023-03-06T20:18:45.662Z,6.53
2023-03-06T20:21:12.567Z,7.33
2023-03-06T20:23:39.499Z,7.27
2023-03-06T20:26:09.616Z,7.17
2023-03-06T20:28:38.149Z,7.93
2023-03-06T20:31:17.667Z,7.57
2023-03-06T20:33:46.175Z,7.43
2023-03-06T20:36:39.213Z,7.23
2023-03-06T20:39:14.060Z,7.70
2023-03-06T20:41:41.601Z,7.20
2023-03-06T20:44:13.464Z,7.43
2023-03-06T20:46:40.630Z,7.47
2023-03-06T20:49:08.709Z,7.70
2023-03-06T20:51:39.052Z,7.90
2023-03-06T20:54:07.793Z,7.77
2023-03-06T20:56:36.587Z,7.17
2023-03-06T20:59:03.629Z,7.43
2023-03-06T21:01:33.221Z,7.00
2023-03-06T21:04:02.171Z,7.27
2023-03-06T21:06:29.311Z,7.40
2023-03-06T21:08:58.549Z,7.20
2023-03-06T21:11:26.177Z,7.67
2023-03-06T21:13:53.771Z,7.63
2023-03-06T21:16:22.717Z,7.63
2023-03-06T21:18:49.653Z,7.00
2023-03-06T21:21:19.145Z,6.63
2023-03-06T21:23:47.278Z,7.57
2023-03-06T21:26:17.915Z,7.90
2023-03-06T21:28:44.704Z,7.43
2023-03-06T21:31:14.143Z,8.20
2023-03-06T21:33:41.418Z,7.70
2023-03-06T21:36:09.098Z,7.53
2023-03-06T21:38:36.214Z,7.50
2023-03-06T21:41:20.752Z,7.50
2023-03-06T21:43:47.532Z,7.37
2023-03-06T21:46:14.743Z,7.80
2023-03-06T21:48:41.752Z,7.97
2023-03-06T21:51:15.768Z,7.57
2023-03-06T21:53:43.660Z,8.60
2023-03-06T21:56:11.163Z,7.57
2023-03-06T21:58:38.192Z,7.87
2023-03-06T22:01:13.608Z,7.53
2023-03-06T22:03:40.585Z,8.33
2023-03-06T22:06:12.563Z,7.63
2023-03-06T22:08:40.408Z,7.93
2023-03-06T22:11:13.077Z,8.60
2023-03-06T22:13:40.658Z,8.17
2023-03-06T22:16:07.790Z,8.50
2023-03-06T22:18:35.710Z,7.70
2023-03-06T22:21:14.295Z,7.93
2023-03-06T22:23:41.763Z,8.30
2023-03-06T22:26:11.223Z,7.50
2023-03-06T22:28:38.366Z,8.00
2023-03-06T22:31:09.361Z,8.70
2023-03-06T22:33:36.895Z,8.07
2023-03-06T22:36:07.616Z,8.37
2023-03-06T22:38:39.903Z,8.50
2023-03-06T22:41:08.149Z,9.27
2023-03-06T22:43:35.831Z,8.87
2023-03-06T22:46:07.880Z,8.17
2023-03-06T22:48:34.711Z,8.03
2023-03-06T22:51:07.471Z,8.17
2023-03-06T22:53:34.421Z,7.97
2023-03-06T22:56:02.276Z,8.40
2023-03-06T22:58:34.440Z,8.47
2023-03-06T23:01:13.761Z,7.57
2023-03-06T23:03:45.867Z,8.13
2023-03-06T23:06:12.600Z,7.83
2023-03-06T23:08:39.414Z,8.40
2023-03-06T23:11:14.936Z,7.33
2023-03-06T23:14:00.765Z,8.13
2023-03-06T23:16:46.319Z,7.73
2023-03-06T23:19:31.490Z,7.67
2023-03-06T23:22:16.921Z,7.27
2023-03-06T23:25:02.691Z,7.67
2023-03-06T23:27:29.449Z,7.70
2023-03-06T23:29:58.829Z,8.10
2023-03-06T23:32:25.795Z,8.53
2023-03-06T23:34:52.738Z,8.60
2023-03-06T23:37:19.496Z,7.03
2023-03-06T23:39:46.959Z,7.50
2023-03-06T23:42:13.706Z,7.83
2023-03-06T23:44:40.438Z,7.90
2023-03-06T23:47:07.235Z,7.77
2023-03-06T23:49:34.094Z,8.40
2023-03-06T23:52:00.925Z,7.83
2023-03-06T23:54:27.705Z,7.80
2023-03-06T23:56:54.482Z,7.57
2023-03-06T23:59:21.430Z,7.37
